Weather History for KORC - April, 2014

Change the Weather History Date:

Wednesday, April 23, 2014

  Actual Average Record
Temperature  
Mean Temperature 54 °F -  
Max Temperature 62 °F 61 °F 87 °F (2009)
Min Temperature 46 °F 40 °F 24 °F (2013)
Degree Days  
Heating Degree Days 11    
Growing Degree Days 4 (Base 50)    
Moisture  
Dew Point 38 °F    
Average Humidity 56    
Maximum Humidity 87    
Minimum Humidity 42    
Precipitation  
Precipitation 0.15 in - - ()
Sea Level Pressure  
Sea Level Pressure 29.82 in    
Wind  
Wind Speed 14 mph (SE)    
Max Wind Speed 26 mph    
Max Gust Speed 37 mph    
Visibility 10 miles    
Events Rain    
Averages and records for this station are not official NWS values.
T = Trace of Precipitation, MM = Missing Value Source: NWS Daily Summary

Daily Weather History Graph

Daily Weather History Graph

Search for Another Location

Airport or City:

Trip Planner

Search our weather history database for the weather conditions in past years. The results will help you decide how hot, cold, wet, or windy it might be!

Date:

Astronomy

Apr. 23, 2014 Rise Set
Actual Time 6:29 AM CDT 8:16 PM CDT
Civil Twilight 5:59 AM CDT 8:46 PM CDT
Nautical Twilight 5:22 AM CDT 9:23 PM CDT
Astronomical Twilight 4:43 AM CDT 10:03 PM CDT
Moon 3:11 AM CDT (4/23) 2:17 PM CDT (4/23)
Length of Visible Light 14h 46m
Length of Day
13h 46m
Waning Crescent, 34% of the Moon is Illuminated
Apr 23
Waning Crescent
Apr 29
New
May 6
First Quarter
May 14
Full
May 21
Last Quarter

Hourly Weather History & Observations

Time (CDT) Temp. Windchill Dew Point Humidity Pressure Visibility Wind Dir Wind Speed Gust Speed Precip Events Conditions
12:15 AM 55.4 °F - 35.6 °F 47% 29.97 in 10.0 mi ESE 8.1 mph - N/A   Overcast
12:35 AM 55.4 °F - 33.8 °F 44% 29.97 in 10.0 mi SE 8.1 mph - N/A   Overcast
12:55 AM 55.4 °F - 33.8 °F 44% 29.97 in 10.0 mi SE 11.5 mph 17.3 mph N/A   Overcast
1:15 AM 55.4 °F - 33.8 °F 44% 29.97 in 10.0 mi SE 10.4 mph 17.3 mph N/A   Overcast
1:35 AM 55.4 °F - 33.8 °F 44% 29.97 in 10.0 mi SE 9.2 mph - N/A   Overcast
1:55 AM 55.4 °F - 33.8 °F 44% 29.96 in 10.0 mi SE 10.4 mph 17.3 mph N/A   Overcast
2:15 AM 55.4 °F - 33.8 °F 44% 29.95 in 10.0 mi ESE 12.7 mph 18.4 mph N/A   Mostly Cloudy
2:35 AM 53.6 °F - 33.8 °F 47% 29.95 in 10.0 mi ESE 11.5 mph 16.1 mph N/A   Mostly Cloudy
2:55 AM 53.6 °F - 33.8 °F 47% 29.94 in 10.0 mi ESE 9.2 mph 17.3 mph N/A   Overcast
3:15 AM 53.6 °F - 33.8 °F 47% 29.93 in 10.0 mi ESE 12.7 mph 18.4 mph N/A   Mostly Cloudy
3:35 AM 53.6 °F - 35.6 °F 51% 29.93 in 10.0 mi ESE 11.5 mph 18.4 mph N/A   Mostly Cloudy
3:55 AM 53.6 °F - 33.8 °F 47% 29.93 in 10.0 mi SE 10.4 mph 19.6 mph N/A   Scattered Clouds
4:15 AM 51.8 °F - 33.8 °F 50% 29.92 in 10.0 mi ESE 11.5 mph 18.4 mph N/A   Scattered Clouds
4:35 AM 51.8 °F - 33.8 °F 50% 29.93 in 10.0 mi SE 11.5 mph - N/A   Scattered Clouds
4:55 AM 51.8 °F - 35.6 °F 54% 29.93 in 10.0 mi ESE 10.4 mph 17.3 mph N/A   Mostly Cloudy
5:15 AM 51.8 °F - 35.6 °F 54% 29.93 in 10.0 mi ESE 12.7 mph 19.6 mph N/A   Overcast
5:35 AM 51.8 °F - 33.8 °F 50% 29.94 in 10.0 mi SE 9.2 mph 18.4 mph N/A   Overcast
5:55 AM 51.8 °F - 33.8 °F 50% 29.95 in 10.0 mi ESE 10.4 mph 16.1 mph N/A   Overcast
6:15 AM 51.8 °F - 35.6 °F 54% 29.93 in 10.0 mi ESE 13.8 mph 20.7 mph N/A   Overcast
6:35 AM 48.2 °F - 37.4 °F 66% 29.92 in 10.0 mi ESE 16.1 mph 23.0 mph N/A Rain Light Rain
6:55 AM 50.0 °F - 37.4 °F 62% 29.93 in 10.0 mi ESE 15.0 mph 24.2 mph N/A Rain Light Rain
7:15 AM 50.0 °F - 35.6 °F 58% 29.92 in 10.0 mi ESE 13.8 mph 21.9 mph N/A   Overcast
7:35 AM 48.2 °F - 35.6 °F 62% 29.92 in 10.0 mi ESE 15.0 mph 20.7 mph N/A Rain Light Rain
7:55 AM 48.2 °F - 35.6 °F 62% 29.94 in 10.0 mi ESE 13.8 mph 23.0 mph N/A Rain Light Rain
8:15 AM 48.2 °F - 35.6 °F 62% 29.94 in 10.0 mi SE 11.5 mph 19.6 mph N/A   Overcast
8:35 AM 48.2 °F - 35.6 °F 62% 29.92 in 10.0 mi ESE 17.3 mph 23.0 mph N/A   Overcast
8:55 AM 48.2 °F - 37.4 °F 66% 29.88 in 10.0 mi ESE 18.4 mph 26.5 mph 0.01 in Rain Light Rain
9:15 AM 48.2 °F - 37.4 °F 66% 29.87 in 10.0 mi ESE 16.1 mph 25.3 mph 0.01 in Rain Light Rain
9:35 AM 50.0 °F - 37.4 °F 62% 29.86 in 10.0 mi SE 15.0 mph 26.5 mph 0.01 in   Scattered Clouds
9:55 AM 53.6 °F - 35.6 °F 51% 29.86 in 10.0 mi SE 18.4 mph 26.5 mph 0.01 in   Scattered Clouds
10:15 AM 53.6 °F - 35.6 °F 51% 29.85 in 10.0 mi SE 18.4 mph 33.4 mph N/A   Scattered Clouds
10:35 AM 53.6 °F - 33.8 °F 47% 29.84 in 10.0 mi SE 23.0 mph 33.4 mph N/A   Scattered Clouds
10:55 AM 51.8 °F - 33.8 °F 50% 29.84 in 10.0 mi SSE 18.4 mph 32.2 mph N/A   Mostly Cloudy
11:15 AM 53.6 °F - 35.6 °F 51% 29.82 in 10.0 mi SSE 21.9 mph 32.2 mph N/A   Mostly Cloudy
11:35 AM 53.6 °F - 35.6 °F 51% 29.81 in 10.0 mi SSE 23.0 mph 31.1 mph N/A   Mostly Cloudy
11:55 AM 53.6 °F - 37.4 °F 54% 29.80 in 10.0 mi SE 19.6 mph 29.9 mph N/A   Mostly Cloudy
12:15 PM 53.6 °F - 37.4 °F 54% 29.79 in 10.0 mi SSE 26.5 mph 34.5 mph N/A   Scattered Clouds
12:35 PM 55.4 °F - 39.2 °F 54% 29.78 in 10.0 mi SSE 25.3 mph 36.8 mph N/A   Clear
1:15 PM 55.4 °F - 39.2 °F 54% 29.76 in 10.0 mi SSE 24.2 mph 36.8 mph N/A   Scattered Clouds
1:35 PM 57.2 °F - 39.2 °F 51% 29.76 in 10.0 mi SSE 25.3 mph 35.7 mph N/A   Scattered Clouds
1:55 PM 59.0 °F - 39.2 °F 48% 29.76 in 10.0 mi SSE 24.2 mph 33.4 mph N/A   Clear
2:15 PM 57.2 °F - 39.2 °F 51% 29.76 in 10.0 mi SSE 20.7 mph 29.9 mph N/A   Clear
2:55 PM 60.8 °F - 39.2 °F 45% 29.74 in 10.0 mi SE 19.6 mph 33.4 mph N/A   Scattered Clouds
3:15 PM 60.8 °F - 39.2 °F 45% 29.72 in 10.0 mi SSE 19.6 mph 34.5 mph N/A   Clear
3:35 PM 60.8 °F - 39.2 °F 45% 29.72 in 10.0 mi SE 19.6 mph 32.2 mph N/A   Clear
3:55 PM 62.6 °F - 39.2 °F 42% 29.71 in 10.0 mi SE 21.9 mph 32.2 mph N/A   Clear
4:15 PM 62.6 °F - 39.2 °F 42% 29.71 in 10.0 mi SE 19.6 mph 28.8 mph N/A   Clear
4:35 PM 62.6 °F - 39.2 °F 42% 29.71 in 10.0 mi SSE 23.0 mph 32.2 mph N/A   Clear
4:55 PM 60.8 °F - 39.2 °F 45% 29.71 in 10.0 mi SSE 23.0 mph 31.1 mph N/A   Scattered Clouds
5:15 PM 60.8 °F - 39.2 °F 45% 29.70 in 10.0 mi SSE 21.9 mph 29.9 mph N/A   Scattered Clouds
5:35 PM 60.8 °F - 39.2 °F 45% 29.70 in 10.0 mi SSE 17.3 mph 27.6 mph N/A   Clear
5:55 PM 59.0 °F - 39.2 °F 48% 29.70 in 10.0 mi SE 17.3 mph 26.5 mph N/A   Clear
6:15 PM 57.2 °F - 39.2 °F 51% 29.70 in 10.0 mi SE 17.3 mph 26.5 mph N/A   Clear
6:35 PM 57.2 °F - 41.0 °F 55% 29.70 in 10.0 mi ESE 16.1 mph 26.5 mph N/A   Scattered Clouds
6:55 PM 55.4 °F - 41.0 °F 58% 29.69 in 10.0 mi SE 12.7 mph 19.6 mph N/A   Mostly Cloudy
7:15 PM 53.6 °F - 41.0 °F 62% 29.69 in 10.0 mi SE 17.3 mph 26.5 mph N/A   Overcast
7:35 PM 53.6 °F - 42.8 °F 67% 29.70 in 10.0 mi SE 12.7 mph 20.7 mph N/A   Mostly Cloudy
7:55 PM 51.8 °F - 41.0 °F 67% 29.70 in 10.0 mi ESE 15.0 mph 21.9 mph N/A   Scattered Clouds
8:15 PM 51.8 °F - 41.0 °F 67% 29.70 in 10.0 mi SE 13.8 mph 24.2 mph N/A   Mostly Cloudy
8:35 PM 50.0 °F - 42.8 °F 76% 29.70 in 10.0 mi SE 11.5 mph 23.0 mph N/A Rain Light Rain
8:55 PM 48.2 °F - 42.8 °F 82% 29.68 in 7.0 mi ESE 17.3 mph 23.0 mph 0.06 in Rain Rain
9:15 PM 48.2 °F - 42.8 °F 82% 29.69 in 7.0 mi ESE 16.1 mph 20.7 mph 0.02 in Rain Light Rain
9:35 PM 48.2 °F - 41.0 °F 76% 29.70 in 10.0 mi ESE 12.7 mph 24.2 mph 0.03 in   Overcast
9:55 PM 46.4 °F 40.7 °F 39.2 °F 76% 29.71 in 10.0 mi SE 12.7 mph 23.0 mph 0.04 in   Scattered Clouds
10:15 PM 48.2 °F - 39.2 °F 71% 29.73 in 10.0 mi SSE 11.5 mph 16.1 mph N/A   Clear
10:35 PM 48.2 °F - 39.2 °F 71% 29.72 in 10.0 mi SSE 16.1 mph 19.6 mph N/A   Mostly Cloudy
10:55 PM 48.2 °F - 41.0 °F 76% 29.73 in 10.0 mi SSE 9.2 mph - N/A Rain Light Rain
11:15 PM 46.4 °F 41.1 °F 42.8 °F 87% 29.72 in 7.0 mi SE 11.5 mph - 0.03 in Rain Light Rain
11:35 PM 46.4 °F 41.5 °F 42.8 °F 87% 29.71 in 10.0 mi SE 10.4 mph 16.1 mph 0.03 in   Mostly Cloudy
11:55 PM 48.2 °F - 42.8 °F 82% 29.69 in 10.0 mi SSE 12.7 mph 20.7 mph 0.03 in   Light Drizzle